createdAt,value
2017-11-04T02:15:38.068Z,4.00
2017-11-04T02:16:37.967Z,4.00
2017-11-04T02:18:32.327Z,4.00
2017-11-04T02:19:32.317Z,4.00
2017-11-04T02:21:26.741Z,4.00
2017-11-04T02:22:26.687Z,4.00
2017-11-04T02:24:21.047Z,4.00
2017-11-04T02:25:21.031Z,4.00
2017-11-04T02:27:15.435Z,4.00
2017-11-04T02:28:15.381Z,4.00
2017-11-04T02:30:09.748Z,4.00
2017-11-04T02:31:09.732Z,4.00
2017-11-04T02:33:04.183Z,4.00
2017-11-04T02:34:04.075Z,4.00
2017-11-04T02:35:58.484Z,4.00
2017-11-04T02:36:58.428Z,4.00
2017-11-04T02:38:52.810Z,4.00
2017-11-04T02:39:52.774Z,4.00
2017-11-04T02:41:47.194Z,4.00
2017-11-04T02:42:47.140Z,4.00
2017-11-04T02:44:41.542Z,4.00
2017-11-04T02:45:41.489Z,4.00
2017-11-04T02:47:35.849Z,4.00
2017-11-04T02:48:35.833Z,4.00
2017-11-04T02:50:30.295Z,4.00
2017-11-04T02:51:30.187Z,4.00
2017-11-04T02:53:28.934Z,4.00
2017-11-04T02:54:28.924Z,4.00
2017-11-04T02:56:23.398Z,4.00
2017-11-04T02:57:23.278Z,4.00
2017-11-04T02:59:17.639Z,4.00
2017-11-04T03:00:17.629Z,4.00
2017-11-04T03:02:12.019Z,4.00
2017-11-04T03:03:11.971Z,4.00
2017-11-04T03:05:06.331Z,4.00
2017-11-04T03:06:06.322Z,4.00
2017-11-04T03:08:00.793Z,4.00
2017-11-04T03:09:00.668Z,4.00
2017-11-04T03:10:55.028Z,4.00
2017-11-04T03:11:55.039Z,4.00
2017-11-04T03:13:49.502Z,4.00
2017-11-04T03:14:49.378Z,4.00
2017-11-04T03:16:43.737Z,4.00
2017-11-04T03:17:43.727Z,4.00
2017-11-04T03:19:38.187Z,4.00
2017-11-04T03:20:38.079Z,4.00
2017-11-04T03:22:32.907Z,4.00
2017-11-04T03:23:32.431Z,4.00
2017-11-04T03:25:26.790Z,4.00
2017-11-04T03:26:26.780Z,4.00
2017-11-04T03:28:21.190Z,4.00
2017-11-04T03:29:21.132Z,4.00
2017-11-04T03:31:15.494Z,4.00
2017-11-04T03:32:15.484Z,4.00
2017-11-04T03:34:09.950Z,4.00
2017-11-04T03:35:09.833Z,4.00
2017-11-04T03:37:04.185Z,4.00
2017-11-04T03:38:04.173Z,4.00
2017-11-04T03:39:58.626Z,4.00
2017-11-04T03:40:58.522Z,4.00
2017-11-04T03:42:52.884Z,4.00
2017-11-04T03:43:52.874Z,4.00
2017-11-04T03:45:47.284Z,4.00
2017-11-04T03:46:47.224Z,4.00
2017-11-04T03:48:41.584Z,4.00
2017-11-04T03:49:41.574Z,4.00
2017-11-04T03:51:35.978Z,4.00
2017-11-04T03:52:35.922Z,4.00
2017-11-04T03:54:30.282Z,4.00
2017-11-04T03:55:30.272Z,4.00
2017-11-04T03:57:24.734Z,4.00
2017-11-04T03:58:24.624Z,4.00
2017-11-04T04:00:19.028Z,4.00
2017-11-04T04:01:18.972Z,4.00
2017-11-04T04:03:13.322Z,4.00
2017-11-04T04:04:13.312Z,4.00
2017-11-04T04:06:07.764Z,4.00
2017-11-04T04:07:07.658Z,4.00
2017-11-04T04:09:02.010Z,4.00
2017-11-04T04:10:02.000Z,4.00
2017-11-04T04:11:56.406Z,4.00
2017-11-04T04:12:56.351Z,4.00
2017-11-04T04:14:50.709Z,4.00
2017-11-04T04:15:50.700Z,4.00
2017-11-04T04:17:45.111Z,4.00
2017-11-04T04:18:45.053Z,4.00
2017-11-04T04:20:39.411Z,4.00
2017-11-04T04:21:39.401Z,4.00
2017-11-04T04:23:33.855Z,4.00
2017-11-04T04:24:33.750Z,4.00
2017-11-04T04:26:28.114Z,4.00
2017-11-04T04:27:28.102Z,4.00
2017-11-04T04:29:22.596Z,4.00
2017-11-04T04:30:22.440Z,4.00
2017-11-04T04:32:16.790Z,4.00
2017-11-04T04:33:16.780Z,4.00
2017-11-04T04:35:11.185Z,4.00
2017-11-04T04:36:11.130Z,4.00
2017-11-04T04:38:05.775Z,4.00
2017-11-04T04:39:05.480Z,4.00
2017-11-04T04:40:59.833Z,4.00
2017-11-04T04:41:59.820Z,4.00
2017-11-04T04:43:55.008Z,4.00
2017-11-04T04:44:54.158Z,4.00
2017-11-04T04:46:48.618Z,4.00
2017-11-04T04:47:48.511Z,4.00
2017-11-04T04:49:42.918Z,4.00
2017-11-04T04:50:42.864Z,4.00
2017-11-04T04:52:37.219Z,4.00
2017-11-04T04:53:37.208Z,4.00
2017-11-04T04:55:31.835Z,4.00
2017-11-04T04:56:31.559Z,4.00
2017-11-04T04:58:25.955Z,4.00
2017-11-04T04:59:25.897Z,4.00
2017-11-04T05:01:20.311Z,4.00
2017-11-04T05:02:20.245Z,4.00
2017-11-04T05:04:14.609Z,4.00
2017-11-04T05:05:14.595Z,4.00
2017-11-04T05:07:09.047Z,4.00
2017-11-04T05:08:08.944Z,4.00
2017-11-04T05:10:03.302Z,4.00
2017-11-04T05:11:03.293Z,4.00
2017-11-04T05:12:57.693Z,4.00
2017-11-04T05:13:57.631Z,4.00
2017-11-04T05:15:51.980Z,4.00
2017-11-04T05:16:51.970Z,4.00
2017-11-04T05:18:46.379Z,4.00
2017-11-04T05:19:46.323Z,4.00
2017-11-04T05:21:40.694Z,4.00
2017-11-04T05:22:40.682Z,4.00
2017-11-04T05:24:35.303Z,4.00
2017-11-04T05:25:35.033Z,4.00
2017-11-04T05:27:29.514Z,4.00
2017-11-04T05:28:29.378Z,4.00
2017-11-04T05:30:23.720Z,4.00
2017-11-04T05:31:23.710Z,4.00
2017-11-04T05:33:18.123Z,4.00
2017-11-04T05:34:18.061Z,8.00
2017-11-04T05:36:12.421Z,8.00
2017-11-04T05:37:12.407Z,8.00
2017-11-04T05:39:06.817Z,8.00
2017-11-04T05:40:06.757Z,8.00
2017-11-04T05:42:01.124Z,8.00
2017-11-04T05:43:01.106Z,8.00
2017-11-04T05:44:55.558Z,12.00
2017-11-04T05:45:55.444Z,8.00
2017-11-04T05:47:49.804Z,8.00
2017-11-04T05:48:49.794Z,8.00
2017-11-04T05:50:44.247Z,8.00
2017-11-04T05:51:44.214Z,8.00
2017-11-04T05:53:38.503Z,12.00
2017-11-04T05:54:38.495Z,12.00
2017-11-04T05:56:32.900Z,12.00
2017-11-04T05:57:32.841Z,12.00
2017-11-04T05:59:27.192Z,16.00
2017-11-04T06:00:27.184Z,20.00
2017-11-04T06:02:21.637Z,24.00
2017-11-04T06:03:21.524Z,24.00
2017-11-04T06:05:15.883Z,32.00
2017-11-04T06:06:15.874Z,36.00
2017-11-04T06:08:10.285Z,44.00
2017-11-04T06:09:10.224Z,48.00
2017-11-04T06:11:04.587Z,56.00
2017-11-04T06:12:04.576Z,60.00
2017-11-04T06:13:58.985Z,64.00
2017-11-04T06:14:58.929Z,68.00
2017-11-04T06:16:53.336Z,76.00
2017-11-04T06:17:53.280Z,84.00
2017-11-04T06:19:47.729Z,92.00
2017-11-04T06:20:47.616Z,104.00
2017-11-04T06:22:42.026Z,120.00
2017-11-04T06:23:41.966Z,128.00
2017-11-04T06:25:36.323Z,144.00
2017-11-04T06:26:36.312Z,156.00
2017-11-04T06:28:30.721Z,168.00
2017-11-04T06:29:30.661Z,184.00
2017-11-04T06:31:25.021Z,200.00
2017-11-04T06:32:25.010Z,208.00
2017-11-04T06:34:19.414Z,204.00
2017-11-04T06:35:19.358Z,216.00
2017-11-04T06:37:13.708Z,224.00
2017-11-04T06:38:13.695Z,240.00
2017-11-04T06:40:08.901Z,260.00
2017-11-04T06:41:08.044Z,268.00
2017-11-04T06:43:04.687Z,292.00
2017-11-04T06:44:02.384Z,296.00
2017-11-04T06:45:56.741Z,320.00
2017-11-04T06:46:56.735Z,332.00
2017-11-04T06:48:51.116Z,336.00
2017-11-04T06:49:51.068Z,344.00
2017-11-04T06:51:45.481Z,356.00
2017-11-04T06:52:45.407Z,372.00
2017-11-04T06:54:39.769Z,384.00
2017-11-04T06:55:39.756Z,384.00
2017-11-04T06:57:34.238Z,404.00
2017-11-04T06:58:34.095Z,412.00
2017-11-04T07:00:28.475Z,432.00
2017-11-04T07:01:28.464Z,436.00
2017-11-04T07:03:22.923Z,440.00
2017-11-04T07:04:22.811Z,444.00
2017-11-04T07:06:17.170Z,444.00
2017-11-04T07:07:17.158Z,448.00
2017-11-04T07:09:11.770Z,456.00
2017-11-04T07:10:11.499Z,460.00
2017-11-04T07:12:05.856Z,468.00
2017-11-04T07:13:05.846Z,476.00
2017-11-04T07:15:00.246Z,488.00
2017-11-04T07:16:00.188Z,496.00
2017-11-04T07:17:54.547Z,504.00
2017-11-04T07:18:54.536Z,528.00
2017-11-04T07:20:48.954Z,588.00
2017-11-04T07:21:48.895Z,584.00
2017-11-04T07:23:43.245Z,608.00
2017-11-04T07:24:43.237Z,600.00
2017-11-04T07:26:37.695Z,632.00
2017-11-04T07:27:37.576Z,644.00
2017-11-04T07:29:32.328Z,644.00
2017-11-04T07:30:31.915Z,624.00
2017-11-04T07:32:26.282Z,592.00
2017-11-04T07:33:26.270Z,600.00
2017-11-04T07:35:20.683Z,588.00
2017-11-04T07:36:20.618Z,576.00
2017-11-04T07:38:14.972Z,576.00
2017-11-04T07:39:14.963Z,560.00
2017-11-04T07:41:09.371Z,556.00
2017-11-04T07:42:09.313Z,552.00
2017-11-04T07:44:03.673Z,556.00
2017-11-04T07:45:03.660Z,544.00
2017-11-04T07:46:58.102Z,540.00
2017-11-04T07:47:58.008Z,536.00
2017-11-04T07:49:56.795Z,536.00
2017-11-04T07:50:56.736Z,548.00
2017-11-04T07:52:51.095Z,556.00
2017-11-04T07:53:51.086Z,564.00
2017-11-04T07:55:45.498Z,584.00
2017-11-04T07:56:45.435Z,600.00
2017-11-04T07:58:39.796Z,632.00
2017-11-04T07:59:39.781Z,660.00
2017-11-04T08:01:34.947Z,684.00
2017-11-04T08:02:34.131Z,712.00
2017-11-04T08:04:28.603Z,808.00
2017-11-04T08:05:28.489Z,884.00
2017-11-04T08:07:22.837Z,1040.00
2017-11-04T08:08:22.833Z,1088.00
2017-11-04T08:10:17.236Z,1164.00
2017-11-04T08:11:17.179Z,1220.00
2017-11-04T08:13:11.539Z,1320.00
2017-11-04T08:14:11.530Z,1344.00
2017-11-04T08:16:05.942Z,1424.00
2017-11-04T08:17:05.885Z,1436.00
2017-11-04T08:19:00.237Z,1416.00
2017-11-04T08:20:00.228Z,1408.00
2017-11-04T08:21:54.688Z,1376.00
2017-11-04T08:22:54.580Z,1376.00
2017-11-04T08:24:48.936Z,1452.00
2017-11-04T08:25:48.925Z,1500.00
2017-11-04T08:27:43.347Z,1504.00
2017-11-04T08:28:43.280Z,1516.00
2017-11-04T08:30:37.633Z,1560.00
2017-11-04T08:31:37.619Z,1572.00
2017-11-04T08:33:32.033Z,1568.00
2017-11-04T08:34:31.972Z,1540.00
2017-11-04T08:36:26.336Z,1516.00
2017-11-04T08:37:26.315Z,1532.00
2017-11-04T08:39:20.990Z,1512.00
2017-11-04T08:40:20.666Z,1524.00
2017-11-04T08:42:15.029Z,1548.00
2017-11-04T08:43:15.020Z,1588.00
2017-11-04T08:45:09.428Z,1668.00
2017-11-04T08:46:09.372Z,1672.00
2017-11-04T08:48:03.733Z,1688.00
2017-11-04T08:49:03.722Z,1672.00
2017-11-04T08:50:58.132Z,1704.00
2017-11-04T08:51:58.139Z,1708.00
2017-11-04T08:53:52.437Z,1680.00
2017-11-04T08:54:52.431Z,1652.00
2017-11-04T08:56:46.895Z,1676.00
2017-11-04T08:57:46.782Z,1732.00
2017-11-04T08:59:41.146Z,1840.00
2017-11-04T09:00:41.137Z,1876.00
2017-11-04T09:02:35.787Z,1932.00
2017-11-04T09:03:35.500Z,1956.00
2017-11-04T09:05:29.854Z,1944.00
2017-11-04T09:06:29.844Z,1968.00
2017-11-04T09:08:24.300Z,2060.00
2017-11-04T09:09:24.189Z,2024.00
2017-11-04T09:11:18.600Z,1896.00
2017-11-04T09:12:18.544Z,1876.00
2017-11-04T09:14:12.908Z,1800.00
2017-11-04T09:15:12.901Z,1800.00
2017-11-04T09:17:07.344Z,1772.00
2017-11-04T09:18:07.258Z,1752.00
2017-11-04T09:20:01.721Z,1748.00
2017-11-04T09:21:01.613Z,1720.00
2017-11-04T09:22:55.974Z,1660.00
2017-11-04T09:23:55.964Z,1652.00
2017-11-04T09:25:50.382Z,1744.00
2017-11-04T09:26:50.331Z,1776.00
2017-11-04T09:28:44.685Z,1824.00
2017-11-04T09:29:44.675Z,1852.00
2017-11-04T09:31:39.132Z,1856.00
2017-11-04T09:32:39.037Z,1868.00
2017-11-04T09:34:33.397Z,1776.00
2017-11-04T09:35:33.392Z,1776.00
2017-11-04T09:37:27.876Z,1684.00
2017-11-04T09:38:27.747Z,1592.00
2017-11-04T09:40:22.111Z,1532.00
2017-11-04T09:41:22.107Z,1404.00
2017-11-04T09:43:16.579Z,1368.00
2017-11-04T09:44:16.980Z,1400.00
2017-11-04T09:46:10.827Z,1444.00
2017-11-04T09:47:10.819Z,1524.00
2017-11-04T09:49:05.229Z,1528.00
2017-11-04T09:50:05.174Z,1516.00
2017-11-04T09:51:59.539Z,1476.00
2017-11-04T09:52:59.530Z,1476.00
2017-11-04T09:54:54.788Z,1500.00
2017-11-04T09:55:53.889Z,1440.00
2017-11-04T09:57:48.255Z,1448.00
2017-11-04T09:58:48.247Z,1444.00
2017-11-04T10:00:42.683Z,1352.00
2017-11-04T10:01:42.641Z,1348.00
2017-11-04T10:03:36.983Z,1372.00
2017-11-04T10:04:36.974Z,1372.00
2017-11-04T10:06:31.379Z,1392.00
2017-11-04T10:07:31.335Z,1368.00
2017-11-04T10:09:25.694Z,1452.00
2017-11-04T10:10:25.683Z,1484.00
2017-11-04T10:12:20.150Z,1576.00
2017-11-04T10:13:20.055Z,1612.00
2017-11-04T10:15:14.464Z,1716.00
2017-11-04T10:16:14.410Z,1792.00
2017-11-04T10:18:08.829Z,1876.00
2017-11-04T10:19:08.772Z,1928.00
2017-11-04T10:21:03.128Z,2092.00
2017-11-04T10:22:03.126Z,2140.00
2017-11-04T10:23:57.539Z,2156.00
2017-11-04T10:24:57.482Z,2144.00
2017-11-04T10:26:51.849Z,2132.00
2017-11-04T10:27:51.851Z,2060.00
2017-11-04T10:29:46.315Z,1984.00
2017-11-04T10:30:46.209Z,2048.00
2017-11-04T10:32:40.574Z,2148.00
2017-11-04T10:33:40.581Z,2192.00
2017-11-04T10:35:34.989Z,2328.00
2017-11-04T10:36:34.966Z,2432.00
2017-11-04T10:38:29.299Z,2440.00
2017-11-04T10:39:29.291Z,2452.00
2017-11-04T10:41:23.696Z,2528.00
2017-11-04T10:42:23.656Z,2520.00
2017-11-04T10:44:18.014Z,2480.00
2017-11-04T10:45:18.009Z,2488.00
2017-11-04T10:47:12.528Z,2504.00
2017-11-04T10:48:12.378Z,2500.00
2017-11-04T10:50:06.746Z,2480.00
2017-11-04T10:51:06.735Z,2448.00
2017-11-04T10:53:01.147Z,2436.00
2017-11-04T10:54:01.103Z,2424.00
2017-11-04T10:55:55.556Z,2332.00
2017-11-04T10:56:55.470Z,2256.00
2017-11-04T10:58:49.834Z,2136.00
2017-11-04T10:59:49.833Z,2084.00
2017-11-04T11:01:44.276Z,2084.00
2017-11-04T11:02:44.185Z,2140.00
2017-11-04T11:04:38.555Z,2128.00
2017-11-04T11:05:38.549Z,2048.00
2017-11-04T11:07:33.022Z,1884.00
2017-11-04T11:08:32.917Z,1872.00
2017-11-04T11:10:27.285Z,1892.00
2017-11-04T11:11:27.279Z,1856.00
2017-11-04T11:13:21.695Z,1776.00
2017-11-04T11:14:21.645Z,1768.00
2017-11-04T11:16:16.016Z,1728.00
2017-11-04T11:17:16.010Z,1708.00
2017-11-04T11:19:10.428Z,1536.00
2017-11-04T11:20:10.375Z,1492.00
2017-11-04T11:22:04.755Z,1308.00
2017-11-04T11:23:04.752Z,1276.00
2017-11-04T11:24:59.201Z,1428.00
2017-11-04T11:25:59.107Z,1428.00
2017-11-04T11:27:53.514Z,1268.00
2017-11-04T11:28:53.468Z,1244.00
2017-11-04T11:30:47.836Z,1220.00
2017-11-04T11:31:47.830Z,1256.00
2017-11-04T11:33:42.262Z,1348.00
2017-11-04T11:34:42.194Z,1344.00
2017-11-04T11:36:36.567Z,1468.00
2017-11-04T11:37:36.569Z,1652.00
2017-11-04T11:39:30.988Z,1872.00
2017-11-04T11:40:30.928Z,1888.00
2017-11-04T11:42:25.306Z,2008.00
2017-11-04T11:43:25.302Z,2080.00
2017-11-04T11:45:19.757Z,2228.00
2017-11-04T11:46:19.656Z,2336.00
2017-11-04T11:48:14.031Z,2336.00
2017-11-04T11:49:14.026Z,2336.00
2017-11-04T11:51:08.447Z,2352.00
2017-11-04T11:52:08.390Z,2372.00
2017-11-04T11:54:02.767Z,2408.00
2017-11-04T11:55:02.757Z,2460.00
2017-11-04T11:57:02.044Z,2336.00
2017-11-04T11:58:01.996Z,2220.00
2017-11-04T11:59:56.352Z,2200.00
2017-11-04T12:00:56.349Z,2212.00
2017-11-04T12:02:50.837Z,2396.00
2017-11-04T12:03:50.719Z,2504.00
2017-11-04T12:05:45.083Z,2552.00
2017-11-04T12:06:45.076Z,2492.00
2017-11-04T12:08:39.486Z,2248.00
2017-11-04T12:09:39.435Z,2076.00
2017-11-04T12:11:33.807Z,1960.00
2017-11-04T12:12:33.803Z,1984.00
2017-11-04T12:14:28.275Z,1884.00
2017-11-04T12:15:28.180Z,1900.00
2017-11-04T12:17:22.550Z,1928.00
2017-11-04T12:18:22.546Z,1884.00
2017-11-04T12:20:16.965Z,1884.00
2017-11-04T12:21:16.914Z,1884.00
2017-11-04T12:23:11.366Z,1912.00
2017-11-04T12:24:11.284Z,1876.00
2017-11-04T12:26:05.654Z,1824.00
2017-11-04T12:27:05.652Z,1836.00
2017-11-04T12:29:00.080Z,1868.00
2017-11-04T12:30:00.028Z,1832.00
2017-11-04T12:31:54.488Z,1808.00
2017-11-04T12:32:54.398Z,1772.00
2017-11-04T12:34:48.762Z,1784.00
2017-11-04T12:35:48.763Z,1792.00
2017-11-04T12:37:43.185Z,1796.00
2017-11-04T12:38:43.129Z,1796.00
2017-11-04T12:40:37.502Z,1752.00
2017-11-04T12:41:37.497Z,1704.00
2017-11-04T12:43:31.911Z,1560.00
2017-11-04T12:44:31.881Z,1548.00
2017-11-04T12:46:26.332Z,1592.00
2017-11-04T12:47:26.226Z,1596.00
2017-11-04T12:49:20.590Z,1592.00
2017-11-04T12:50:20.585Z,1596.00
2017-11-04T12:52:14.994Z,1644.00
2017-11-04T12:53:14.943Z,1628.00
2017-11-04T12:55:09.319Z,1656.00
2017-11-04T12:56:09.318Z,1652.00
2017-11-04T12:58:03.778Z,1616.00
2017-11-04T12:59:03.689Z,1536.00
2017-11-04T13:00:58.108Z,1540.00
2017-11-04T13:01:58.058Z,1536.00
2017-11-04T13:03:52.431Z,1412.00
2017-11-04T13:04:52.428Z,1384.00
2017-11-04T13:06:46.900Z,1356.00
2017-11-04T13:07:46.801Z,1348.00
2017-11-04T13:09:41.168Z,1304.00
2017-11-04T13:10:41.165Z,1260.00
2017-11-04T13:12:35.786Z,1312.00
2017-11-04T13:13:35.533Z,1300.00
2017-11-04T13:15:29.917Z,1292.00
2017-11-04T13:16:29.910Z,1268.00
2017-11-04T13:18:24.324Z,1272.00
2017-11-04T13:19:24.269Z,1260.00
2017-11-04T13:21:18.701Z,1248.00
2017-11-04T13:22:18.720Z,1248.00
2017-11-04T13:24:13.101Z,1248.00
2017-11-04T13:25:13.012Z,1220.00
2017-11-04T13:27:07.569Z,1176.00
2017-11-04T13:28:07.376Z,1148.00
2017-11-04T13:30:01.747Z,1100.00
2017-11-04T13:31:01.744Z,1092.00
2017-11-04T13:32:56.152Z,1032.00
2017-11-04T13:33:56.100Z,988.00
2017-11-04T13:35:50.478Z,916.00
2017-11-04T13:36:50.468Z,900.00
2017-11-04T13:38:44.875Z,864.00
2017-11-04T13:39:44.841Z,856.00
2017-11-04T13:41:39.212Z,856.00
2017-11-04T13:42:39.199Z,872.00
2017-11-04T13:44:33.763Z,912.00
2017-11-04T13:45:33.568Z,932.00
2017-11-04T13:47:28.047Z,936.00
2017-11-04T13:48:27.925Z,948.00
2017-11-04T13:50:22.286Z,988.00
2017-11-04T13:51:22.281Z,996.00
2017-11-04T13:53:16.783Z,948.00
2017-11-04T13:54:16.649Z,928.00
2017-11-04T13:56:11.022Z,892.00
2017-11-04T13:57:11.015Z,860.00
2017-11-04T13:59:05.438Z,820.00
2017-11-04T14:00:05.383Z,800.00
2017-11-04T14:01:59.758Z,784.00
2017-11-04T14:02:59.759Z,764.00
2017-11-04T14:04:54.228Z,728.00
2017-11-04T14:05:54.118Z,724.00
2017-11-04T14:07:48.495Z,700.00
2017-11-04T14:08:48.489Z,688.00
2017-11-04T14:10:42.912Z,676.00
2017-11-04T14:11:42.854Z,672.00
2017-11-04T14:13:37.480Z,668.00
2017-11-04T14:14:37.302Z,676.00
2017-11-04T14:16:31.649Z,680.00
2017-11-04T14:17:31.645Z,676.00
2017-11-04T14:19:26.069Z,684.00
2017-11-04T14:20:26.010Z,680.00
2017-11-04T14:22:20.382Z,616.00
2017-11-04T14:23:20.375Z,580.00
2017-11-04T14:25:14.808Z,540.00
2017-11-04T14:26:14.761Z,528.00
2017-11-04T14:28:09.108Z,500.00
2017-11-04T14:29:09.102Z,480.00
2017-11-04T14:31:03.567Z,460.00
2017-11-04T14:32:03.471Z,460.00
2017-11-04T14:33:57.829Z,456.00
2017-11-04T14:34:57.829Z,448.00
2017-11-04T14:36:52.315Z,444.00
2017-11-04T14:37:52.332Z,440.00
2017-11-04T14:39:46.572Z,440.00
2017-11-04T14:40:46.571Z,444.00
2017-11-04T14:42:40.996Z,448.00
2017-11-04T14:43:40.934Z,444.00
2017-11-04T14:45:35.304Z,428.00
2017-11-04T14:46:35.299Z,424.00
2017-11-04T14:48:29.787Z,428.00
2017-11-04T14:49:29.663Z,432.00
2017-11-04T14:51:24.027Z,432.00
2017-11-04T14:52:24.023Z,420.00
2017-11-04T14:54:18.446Z,408.00
2017-11-04T14:55:18.396Z,412.00
2017-11-04T14:57:12.753Z,408.00
2017-11-04T14:58:12.749Z,404.00
2017-11-04T15:00:07.178Z,388.00
2017-11-04T15:01:07.194Z,384.00
2017-11-04T15:03:01.481Z,376.00
2017-11-04T15:04:01.486Z,372.00
2017-11-04T15:05:55.954Z,368.00
2017-11-04T15:06:55.839Z,360.00
2017-11-04T15:08:50.209Z,336.00
2017-11-04T15:09:50.204Z,320.00
2017-11-04T15:11:44.724Z,288.00
2017-11-04T15:12:44.563Z,268.00
2017-11-04T15:14:39.041Z,240.00
2017-11-04T15:15:38.933Z,220.00
2017-11-04T15:17:33.302Z,196.00
2017-11-04T15:18:33.312Z,180.00
2017-11-04T15:20:27.970Z,156.00
2017-11-04T15:21:27.671Z,148.00
2017-11-04T15:23:22.108Z,128.00
2017-11-04T15:24:22.056Z,120.00
2017-11-04T15:26:16.472Z,104.00
2017-11-04T15:27:16.401Z,100.00
2017-11-04T15:29:10.778Z,88.00
2017-11-04T15:30:10.766Z,88.00
2017-11-04T15:32:05.197Z,80.00
2017-11-04T15:33:05.133Z,76.00
2017-11-04T15:34:59.574Z,68.00
2017-11-04T15:35:59.499Z,60.00
2017-11-04T15:37:54.137Z,56.00
2017-11-04T15:38:53.868Z,48.00
2017-11-04T15:40:48.980Z,44.00
2017-11-04T15:41:48.335Z,40.00
2017-11-04T15:43:42.604Z,32.00
2017-11-04T15:44:42.601Z,28.00
2017-11-04T15:46:37.011Z,24.00
2017-11-04T15:47:36.957Z,24.00
2017-11-04T15:49:31.328Z,20.00
2017-11-04T15:50:31.323Z,16.00
2017-11-04T15:52:26.011Z,12.00
2017-11-04T15:53:25.726Z,8.00
2017-11-04T15:55:20.047Z,12.00
2017-11-04T15:56:20.043Z,8.00
2017-11-04T15:58:14.565Z,8.00
2017-11-04T15:59:14.439Z,8.00
2017-11-04T16:01:08.854Z,4.00
2017-11-04T16:02:08.786Z,8.00
2017-11-04T16:04:03.147Z,4.00
2017-11-04T16:05:03.144Z,4.00
2017-11-04T16:06:57.563Z,8.00
2017-11-04T16:07:57.508Z,4.00
2017-11-04T16:09:51.881Z,8.00
2017-11-04T16:10:51.896Z,8.00
2017-11-04T16:12:46.343Z,8.00
2017-11-04T16:13:46.249Z,8.00
2017-11-04T16:15:40.643Z,8.00
2017-11-04T16:16:40.648Z,8.00
2017-11-04T16:18:35.025Z,8.00
2017-11-04T16:19:34.971Z,8.00
2017-11-04T16:21:29.345Z,8.00
2017-11-04T16:22:29.339Z,8.00
2017-11-04T16:24:23.757Z,8.00
2017-11-04T16:25:23.704Z,8.00
2017-11-04T16:27:18.074Z,8.00
2017-11-04T16:28:18.067Z,8.00
2017-11-04T16:30:12.541Z,8.00
2017-11-04T16:31:12.444Z,8.00
2017-11-04T16:33:06.874Z,8.00
2017-11-04T16:34:06.804Z,8.00
2017-11-04T16:36:01.175Z,8.00
2017-11-04T16:37:01.174Z,8.00
2017-11-04T16:38:55.588Z,8.00
2017-11-04T16:39:55.537Z,8.00
2017-11-04T16:41:49.948Z,8.00
2017-11-04T16:42:49.891Z,8.00
2017-11-04T16:44:44.264Z,8.00
2017-11-04T16:45:44.261Z,4.00
2017-11-04T16:47:38.718Z,4.00
2017-11-04T16:48:38.623Z,4.00
2017-11-04T16:50:32.996Z,4.00
2017-11-04T16:51:32.990Z,4.00
2017-11-04T16:53:27.413Z,4.00
2017-11-04T16:54:27.777Z,4.00
2017-11-04T16:56:21.729Z,8.00
2017-11-04T16:57:21.723Z,4.00
2017-11-04T16:59:16.135Z,4.00
2017-11-04T17:00:16.083Z,4.00
2017-11-04T17:02:10.452Z,8.00
2017-11-04T17:03:10.445Z,8.00
2017-11-04T17:05:04.995Z,8.00
2017-11-04T17:06:04.797Z,8.00
2017-11-04T17:07:59.178Z,8.00
2017-11-04T17:08:59.174Z,8.00
2017-11-04T17:10:53.606Z,8.00
2017-11-04T17:11:53.543Z,8.00
2017-11-04T17:13:47.912Z,8.00
2017-11-04T17:14:47.907Z,4.00
2017-11-04T17:16:42.374Z,4.00
2017-11-04T17:17:42.265Z,4.00
2017-11-04T17:19:36.630Z,4.00
2017-11-04T17:20:36.633Z,4.00
2017-11-04T17:22:31.045Z,4.00
2017-11-04T17:23:30.991Z,4.00
2017-11-04T17:25:25.355Z,4.00
2017-11-04T17:26:25.357Z,4.00
2017-11-04T17:28:19.784Z,4.00
2017-11-04T17:29:19.719Z,4.00
2017-11-04T17:31:14.079Z,4.00
2017-11-04T17:32:14.178Z,4.00
2017-11-04T17:34:08.565Z,4.00
2017-11-04T17:35:08.445Z,4.00
2017-11-04T17:37:02.820Z,4.00
2017-11-04T17:38:02.815Z,4.00
2017-11-04T17:39:57.247Z,4.00
2017-11-04T17:40:57.188Z,4.00
2017-11-04T17:42:51.547Z,4.00
2017-11-04T17:43:51.544Z,4.00
2017-11-04T17:45:46.014Z,4.00
2017-11-04T17:46:45.910Z,4.00
2017-11-04T17:48:40.285Z,4.00
2017-11-04T17:49:40.280Z,4.00
2017-11-04T17:51:34.748Z,4.00
2017-11-04T17:52:34.646Z,4.00
2017-11-04T17:54:29.052Z,4.00
2017-11-04T17:55:29.001Z,4.00
2017-11-04T17:57:23.372Z,4.00
2017-11-04T17:58:23.360Z,4.00
2017-11-04T18:00:17.782Z,4.00
2017-11-04T18:01:17.727Z,4.00
2017-11-04T18:03:12.102Z,4.00
2017-11-04T18:04:12.093Z,4.00
2017-11-04T18:06:06.498Z,4.00
2017-11-04T18:07:06.450Z,4.00
2017-11-04T18:09:00.821Z,4.00
2017-11-04T18:10:00.817Z,4.00
2017-11-04T18:11:55.308Z,4.00
2017-11-04T18:12:55.187Z,4.00
2017-11-04T18:14:49.647Z,4.00
2017-11-04T18:15:49.580Z,4.00
2017-11-04T18:17:43.940Z,4.00
2017-11-04T18:18:43.926Z,4.00
2017-11-04T18:20:38.634Z,4.00
2017-11-04T18:21:38.301Z,4.00
2017-11-04T18:23:32.670Z,4.00
2017-11-04T18:24:32.671Z,4.00
2017-11-04T18:26:27.091Z,4.00
2017-11-04T18:27:27.034Z,4.00
2017-11-04T18:29:21.410Z,4.00
2017-11-04T18:30:21.400Z,4.00
2017-11-04T18:32:15.862Z,4.00
2017-11-04T18:33:15.756Z,4.00
2017-11-04T18:35:10.119Z,4.00
2017-11-04T18:36:10.118Z,4.00
2017-11-04T18:38:04.529Z,4.00
2017-11-04T18:39:04.475Z,4.00
2017-11-04T18:40:58.846Z,4.00
2017-11-04T18:41:58.842Z,4.00
2017-11-04T18:43:53.254Z,4.00
2017-11-04T18:44:53.196Z,4.00
2017-11-04T18:46:47.558Z,4.00
2017-11-04T18:47:47.554Z,4.00
2017-11-04T18:49:42.027Z,4.00
2017-11-04T18:50:41.930Z,4.00
2017-11-04T18:52:36.306Z,4.00
2017-11-04T18:53:36.292Z,4.00
2017-11-04T18:55:30.758Z,4.00
2017-11-04T18:56:30.658Z,4.00
2017-11-04T18:58:25.020Z,4.00
2017-11-04T18:59:25.014Z,4.00
2017-11-04T19:01:19.731Z,4.00
2017-11-04T19:02:19.521Z,4.00
2017-11-04T19:04:13.753Z,4.00
2017-11-04T19:05:13.749Z,4.00
2017-11-04T19:07:08.204Z,4.00
2017-11-04T19:08:08.115Z,4.00
2017-11-04T19:10:02.481Z,4.00
2017-11-04T19:11:02.474Z,4.00
2017-11-04T19:12:56.886Z,4.00
2017-11-04T19:13:56.842Z,4.00
2017-11-04T19:15:51.262Z,4.00
2017-11-04T19:16:51.206Z,4.00
2017-11-04T19:18:45.582Z,4.00
2017-11-04T19:19:45.572Z,4.00
2017-11-04T19:21:39.994Z,4.00
2017-11-04T19:22:39.938Z,4.00
2017-11-04T19:24:34.420Z,4.00
2017-11-04T19:25:34.306Z,4.00
2017-11-04T19:27:28.677Z,4.00
2017-11-04T19:28:28.672Z,4.00
2017-11-04T19:30:23.092Z,4.00
2017-11-04T19:31:23.028Z,4.00
2017-11-04T19:33:17.402Z,4.00
2017-11-04T19:34:17.391Z,4.00
2017-11-04T19:36:12.047Z,4.00
2017-11-04T19:37:11.757Z,4.00
2017-11-04T19:39:06.129Z,4.00
2017-11-04T19:40:06.122Z,4.00
2017-11-04T19:42:00.533Z,4.00
2017-11-04T19:43:00.477Z,4.00
2017-11-04T19:44:54.840Z,4.00
2017-11-04T19:45:54.834Z,4.00
2017-11-04T19:47:49.251Z,4.00
2017-11-04T19:48:49.211Z,4.00
2017-11-04T19:50:43.624Z,4.00
2017-11-04T19:51:43.580Z,4.00
2017-11-04T19:53:37.940Z,4.00
2017-11-04T19:54:37.936Z,4.00
2017-11-04T19:56:32.414Z,4.00
2017-11-04T19:57:32.302Z,4.00
2017-11-04T19:59:26.673Z,4.00
2017-11-04T20:00:26.667Z,4.00
2017-11-04T20:02:21.079Z,4.00
2017-11-04T20:03:21.212Z,4.00
2017-11-04T20:05:15.405Z,4.00
2017-11-04T20:06:15.399Z,4.00
2017-11-04T20:08:09.812Z,4.00
2017-11-04T20:09:09.755Z,4.00
2017-11-04T20:11:04.177Z,4.00
2017-11-04T20:12:04.120Z,4.00
2017-11-04T20:13:58.590Z,4.00
2017-11-04T20:14:58.486Z,4.00
2017-11-04T20:16:52.858Z,4.00
2017-11-04T20:17:52.853Z,4.00
2017-11-04T20:19:47.315Z,4.00
2017-11-04T20:20:47.216Z,4.00
2017-11-04T20:22:41.586Z,4.00
2017-11-04T20:23:41.580Z,4.00
2017-11-04T20:25:36.419Z,4.00
2017-11-04T20:26:35.934Z,4.00
2017-11-04T20:28:30.308Z,4.00
2017-11-04T20:29:30.301Z,4.00
2017-11-04T20:31:24.768Z,4.00
2017-11-04T20:32:24.665Z,4.00
2017-11-04T20:34:19.027Z,4.00
2017-11-04T20:35:19.021Z,4.00
2017-11-04T20:37:13.445Z,4.00
2017-11-04T20:38:13.387Z,4.00
2017-11-04T20:40:07.759Z,4.00
2017-11-04T20:41:07.758Z,4.00
2017-11-04T20:43:02.182Z,4.00
2017-11-04T20:44:02.119Z,4.00
2017-11-04T20:45:56.493Z,4.00